To NAV CANADA Home Page Login to a new session Search on AWWS site Disclaimer Vers la page française équivalente Tips FAQ What's new on the site To the Forecasts and Observations / NOTAM section To "File a Flight Plan" website Publications and other links Update of the User's profile FIC Telephone Numbers My Weather Data Folder Route Weather Data Regional Weather Data Local Weather Data To the Forecasts and Observations / NOTAM section
Request Generated 10/19/2018 at 16:17:30 UTC . Weather information available at that time is displayed.

METAR/TAF

MARATHON/ON    

METAR CYSP 191600Z VRB03KT 5SM -RA BR SCT011 BKN062 OVC078 08/07 A2948 RMK SC3SC3AC2 CIG RAG SLP996=
SPECI CYSP 191548Z 23005KT 4SM -RA BR SCT012 BKN065 OVC090 08/07 A2949 RMK SC3SC3AC2 CIG RAG SLP997=
SPECI CYSP 191508Z VRB05KT 10SM -RA FEW019 BKN068 BKN090 OVC100 08/06 A2951 RMK SC2AC3AC2AC1 CIG RAG HZ SLP003=
METAR CYSP 191500Z VRB06KT 15SM FEW013 SCT068 BKN090 BKN100 08/06 A2951 RMK SC2AC2AC1AC1 SLP005=
METAR CYSP 191400Z 22004KT 15SM BKN074 09/07 A2954 RMK AC7 SLP013=

TAF AMD CYSP 191605Z 1916/1921 21005KT P6SM -RA SCT012 BKN040 TEMPO
1916/1917 5SM -SHRA BR BKN012 OVC040
FM191700 25010KT 6SM -RA BR OVC010 TEMPO 1917/1921 2SM -SHRA BR
OVC005
BECMG 1919/1921 29012KT
RMK NXT FCST WILL BE ISSUED AT 201345Z=
Your time UTC time
Weather data provided by Environment Canada and NAV CANADA